createdAt,value
2022-09-03T00:00:58.334Z,14.60
2022-09-03T00:03:34.119Z,14.50
2022-09-03T00:06:10.946Z,14.50
2022-09-03T00:08:54.134Z,14.50
2022-09-03T00:11:52.520Z,14.50
2022-09-03T00:14:26.819Z,14.50
2022-09-03T00:16:57.875Z,14.50
2022-09-03T00:19:30.145Z,14.50
2022-09-03T00:22:02.672Z,14.50
2022-09-03T00:24:33.967Z,14.40
2022-09-03T00:27:05.229Z,14.50
2022-09-03T00:30:06.406Z,14.50
2022-09-03T00:32:52.185Z,14.40
2022-09-03T00:35:50.424Z,14.40
2022-09-03T00:38:17.125Z,14.40
2022-09-03T00:41:17.433Z,14.40
2022-09-03T00:44:14.791Z,14.40
2022-09-03T00:46:56.378Z,14.40
2022-09-03T00:49:37.420Z,14.30
2022-09-03T00:52:17.647Z,14.30
2022-09-03T00:55:14.378Z,14.30
2022-09-03T00:58:02.592Z,14.20
2022-09-03T01:00:30.341Z,14.20
2022-09-03T01:03:24.074Z,14.20
2022-09-03T01:06:38.151Z,14.10
2022-09-03T01:09:26.667Z,14.10
2022-09-03T01:12:17.508Z,14.10
2022-09-03T01:15:13.708Z,14.00
2022-09-03T01:17:51.033Z,14.00
2022-09-03T01:20:35.050Z,14.00
2022-09-03T01:23:43.276Z,14.00
2022-09-03T01:26:37.187Z,13.90
2022-09-03T01:29:20.261Z,13.90
2022-09-03T01:31:53.115Z,13.90
2022-09-03T01:34:42.922Z,13.70
2022-09-03T01:37:44.133Z,13.80
2022-09-03T01:40:37.658Z,13.80
2022-09-03T01:43:14.024Z,13.70
2022-09-03T01:46:00.771Z,13.80
2022-09-03T01:48:48.647Z,13.70
2022-09-03T01:51:31.603Z,13.70
2022-09-03T01:54:21.670Z,13.70
2022-09-03T01:57:35.790Z,13.60
2022-09-03T02:00:31.632Z,13.60
2022-09-03T02:03:05.686Z,13.60
2022-09-03T02:05:32.569Z,13.50
2022-09-03T02:08:01.999Z,13.60
2022-09-03T02:10:33.959Z,13.50
2022-09-03T02:13:25.760Z,13.20
2022-09-03T02:15:56.190Z,13.50
2022-09-03T02:18:27.158Z,13.40
2022-09-03T02:20:55.147Z,13.40
2022-09-03T02:23:24.678Z,13.40
2022-09-03T02:26:00.615Z,11.10
2022-09-03T02:28:30.693Z,13.40
2022-09-03T02:30:57.909Z,13.40
2022-09-03T02:33:25.001Z,13.40
2022-09-03T02:35:52.537Z,13.30
2022-09-03T02:38:26.675Z,13.40
2022-09-03T02:40:56.147Z,13.30
2022-09-03T02:43:28.894Z,13.30
2022-09-03T02:46:01.411Z,13.30
2022-09-03T02:48:28.079Z,13.30
2022-09-03T02:50:54.843Z,13.20
2022-09-03T02:53:21.689Z,13.20
2022-09-03T02:55:48.376Z,13.20
2022-09-03T02:58:15.143Z,13.20
2022-09-03T03:00:41.863Z,13.10
2022-09-03T03:03:08.518Z,13.00
2022-09-03T03:05:44.911Z,13.00
2022-09-03T03:08:15.146Z,13.20
2022-09-03T03:10:43.828Z,13.20
2022-09-03T03:13:10.779Z,13.00
2022-09-03T03:15:37.390Z,13.00
2022-09-03T03:18:04.071Z,13.00
2022-09-03T03:20:30.771Z,13.00
2022-09-03T03:22:57.398Z,13.00
2022-09-03T03:25:24.030Z,12.90
2022-09-03T03:27:50.730Z,12.90
2022-09-03T03:30:17.331Z,12.80
2022-09-03T03:32:44.907Z,12.80
2022-09-03T03:35:11.831Z,12.80
2022-09-03T03:37:38.544Z,12.70
2022-09-03T03:40:06.126Z,12.70
2022-09-03T03:42:36.010Z,12.70
2022-09-03T03:45:02.767Z,12.70
2022-09-03T03:47:31.079Z,12.60
2022-09-03T03:49:58.439Z,12.60
2022-09-03T03:52:26.014Z,12.70
2022-09-03T03:54:53.856Z,12.70
2022-09-03T03:57:23.284Z,12.70
2022-09-03T03:59:49.948Z,12.80
2022-09-03T04:02:18.639Z,12.80
2022-09-03T04:04:45.403Z,12.80
2022-09-03T04:07:12.088Z,12.80
2022-09-03T04:09:39.168Z,12.80
2022-09-03T04:12:08.676Z,12.80
2022-09-03T04:14:35.498Z,12.80
2022-09-03T04:17:03.146Z,12.80
2022-09-03T04:19:30.160Z,12.80
2022-09-03T04:21:57.088Z,12.80
2022-09-03T04:24:23.945Z,12.80
2022-09-03T04:26:50.656Z,12.80
2022-09-03T04:29:18.281Z,12.80
2022-09-03T04:32:04.996Z,12.80
2022-09-03T04:34:31.588Z,12.80
2022-09-03T04:36:59.111Z,12.80
2022-09-03T04:39:26.227Z,12.80
2022-09-03T04:41:52.953Z,12.70
2022-09-03T04:44:19.547Z,12.70
2022-09-03T04:46:47.821Z,12.80
2022-09-03T04:49:15.068Z,12.80
2022-09-03T04:51:41.920Z,12.90
2022-09-03T04:54:10.208Z,12.90
2022-09-03T04:56:40.235Z,12.90
2022-09-03T04:59:09.471Z,12.90
2022-09-03T05:01:38.778Z,11.00
2022-09-03T05:04:06.397Z,13.00
2022-09-03T05:06:34.684Z,13.00
2022-09-03T05:09:01.797Z,13.10
2022-09-03T05:11:29.995Z,13.10
2022-09-03T05:13:58.791Z,13.20
2022-09-03T05:16:28.148Z,13.20
2022-09-03T05:18:56.735Z,13.20
2022-09-03T05:21:24.498Z,13.20
2022-09-03T05:23:52.758Z,13.20
2022-09-03T05:26:22.093Z,12.90
2022-09-03T05:28:52.370Z,13.10
2022-09-03T05:31:20.267Z,13.20
2022-09-03T05:33:49.560Z,13.10
2022-09-03T05:36:19.521Z,13.10
2022-09-03T05:38:47.611Z,13.20
2022-09-03T05:41:16.130Z,13.20
2022-09-03T05:43:43.651Z,13.40
2022-09-03T05:46:18.795Z,13.60
2022-09-03T05:48:45.554Z,13.70
2022-09-03T05:51:16.451Z,13.80
2022-09-03T05:53:45.583Z,13.90
2022-09-03T05:56:17.966Z,14.00
2022-09-03T05:58:48.852Z,14.00
2022-09-03T06:01:23.622Z,14.00
2022-09-03T06:04:01.571Z,14.00
2022-09-03T06:06:30.176Z,14.00
2022-09-03T06:09:02.646Z,13.90
2022-09-03T06:11:30.874Z,13.90
2022-09-03T06:14:00.270Z,13.80
2022-09-03T06:16:31.907Z,13.80
2022-09-03T06:18:59.781Z,13.50
2022-09-03T06:21:26.559Z,13.90
2022-09-03T06:23:56.776Z,13.90
2022-09-03T06:26:28.084Z,13.90
2022-09-03T06:28:56.147Z,13.90
2022-09-03T06:31:23.567Z,14.00
2022-09-03T06:33:50.577Z,14.00
2022-09-03T06:36:19.801Z,14.10
2022-09-03T06:38:47.322Z,14.30
2022-09-03T06:41:26.049Z,14.50
2022-09-03T06:43:59.075Z,14.60
2022-09-03T06:46:25.739Z,14.70
2022-09-03T06:48:53.339Z,14.70
2022-09-03T06:51:22.742Z,14.70
2022-09-03T06:53:51.463Z,14.80
2022-09-03T06:56:23.445Z,14.80
2022-09-03T06:58:50.580Z,14.90
2022-09-03T07:01:23.311Z,15.00
2022-09-03T07:03:57.196Z,15.10
2022-09-03T07:06:26.049Z,15.30
2022-09-03T07:08:53.163Z,15.40
2022-09-03T07:11:24.072Z,15.60
2022-09-03T07:13:52.138Z,15.80
2022-09-03T07:16:21.700Z,16.00
2022-09-03T07:18:49.265Z,16.20
2022-09-03T07:21:19.209Z,16.40
2022-09-03T07:23:46.831Z,16.50
2022-09-03T07:26:22.564Z,16.70
2022-09-03T07:28:50.380Z,16.90
2022-09-03T07:31:20.473Z,16.90
2022-09-03T07:33:47.350Z,17.00
2022-09-03T07:36:17.742Z,17.10
2022-09-03T07:38:45.395Z,17.20
2022-09-03T07:41:17.598Z,17.40
2022-09-03T07:43:55.080Z,17.40
2022-09-03T07:46:24.753Z,17.50
2022-09-03T07:48:53.116Z,17.60
2022-09-03T07:51:22.496Z,17.60
2022-09-03T07:53:49.339Z,17.50
2022-09-03T07:56:17.812Z,17.50
2022-09-03T07:58:44.434Z,17.70
2022-09-03T08:01:20.872Z,17.80
2022-09-03T08:03:50.307Z,17.80
2022-09-03T08:06:18.763Z,17.80
2022-09-03T08:08:45.693Z,17.70
2022-09-03T08:11:17.988Z,17.70
2022-09-03T08:13:48.146Z,17.80
2022-09-03T08:16:17.129Z,17.80
2022-09-03T08:18:43.855Z,17.70
2022-09-03T08:21:16.002Z,17.70
2022-09-03T08:23:44.791Z,17.70
2022-09-03T08:26:12.343Z,17.70
2022-09-03T08:28:39.318Z,17.80
2022-09-03T08:31:13.252Z,17.90
2022-09-03T08:33:43.110Z,18.00
2022-09-03T08:36:18.075Z,18.10
2022-09-03T08:38:46.437Z,18.10
2022-09-03T08:41:20.495Z,18.20
2022-09-03T08:44:16.404Z,17.70
2022-09-03T08:47:05.814Z,18.40
2022-09-03T08:49:46.256Z,18.40
2022-09-03T08:52:42.285Z,18.50
2022-09-03T08:55:29.591Z,18.50
2022-09-03T08:58:10.865Z,18.60
2022-09-03T09:00:54.022Z,18.60
2022-09-03T09:03:58.222Z,18.60
2022-09-03T09:06:43.760Z,18.60
2022-09-03T09:09:20.420Z,18.70
2022-09-03T09:12:09.377Z,18.70
2022-09-03T09:15:05.961Z,18.80
2022-09-03T09:18:09.717Z,18.80
2022-09-03T09:20:47.529Z,18.80
2022-09-03T09:23:19.299Z,18.90
2022-09-03T09:25:50.098Z,18.90
2022-09-03T09:28:22.719Z,19.20
2022-09-03T09:30:51.692Z,19.20
2022-09-03T09:33:20.885Z,19.20
2022-09-03T09:35:49.010Z,19.30
2022-09-03T09:38:16.582Z,19.30
2022-09-03T09:40:45.558Z,19.40
2022-09-03T09:43:15.858Z,19.50
2022-09-03T09:45:45.089Z,19.60
2022-09-03T09:48:31.140Z,19.70
2022-09-03T09:51:09.036Z,19.90
2022-09-03T09:53:36.205Z,20.00
2022-09-03T09:56:03.240Z,20.10
2022-09-03T09:58:33.138Z,18.50
2022-09-03T10:01:15.082Z,20.20
2022-09-03T10:03:59.818Z,20.20
2022-09-03T10:06:48.534Z,20.30
2022-09-03T10:09:18.479Z,20.30
2022-09-03T10:11:50.791Z,20.30
2022-09-03T10:14:35.374Z,20.30
2022-09-03T10:17:19.771Z,20.30
2022-09-03T10:20:29.547Z,20.30
2022-09-03T10:23:03.123Z,20.30
2022-09-03T10:25:56.022Z,20.50
2022-09-03T10:28:27.437Z,20.50
2022-09-03T10:31:11.251Z,20.60
2022-09-03T10:33:59.340Z,20.60
2022-09-03T10:36:39.793Z,20.60
2022-09-03T10:39:19.682Z,20.70
2022-09-03T10:42:22.131Z,20.40
2022-09-03T10:44:53.871Z,20.90
2022-09-03T10:47:59.578Z,20.80
2022-09-03T10:50:31.988Z,21.00
2022-09-03T10:53:26.115Z,21.00
2022-09-03T10:56:08.819Z,20.90
2022-09-03T10:58:49.637Z,20.90
2022-09-03T11:01:51.639Z,21.00
2022-09-03T11:04:40.022Z,20.90
2022-09-03T11:07:10.135Z,21.00
2022-09-03T11:10:04.085Z,21.20
2022-09-03T11:12:42.292Z,21.30
2022-09-03T11:15:27.209Z,21.40
2022-09-03T11:18:20.660Z,21.50
2022-09-03T11:20:49.414Z,21.60
2022-09-03T11:23:17.208Z,21.90
2022-09-03T11:25:52.554Z,22.00
2022-09-03T11:28:51.947Z,22.30
2022-09-03T11:31:41.344Z,22.40
2022-09-03T11:34:19.635Z,22.40
2022-09-03T11:36:50.493Z,22.30
2022-09-03T11:39:33.259Z,22.10
2022-09-03T11:42:06.630Z,23.60
2022-09-03T11:44:51.434Z,22.40
2022-09-03T11:47:38.212Z,22.40
2022-09-03T11:50:20.616Z,22.40
2022-09-03T11:52:49.020Z,22.10
2022-09-03T11:55:38.222Z,22.00
2022-09-03T11:58:18.611Z,21.80
2022-09-03T12:00:46.019Z,21.80
2022-09-03T12:03:17.906Z,21.80
2022-09-03T12:06:10.174Z,21.70
2022-09-03T12:08:55.598Z,21.00
2022-09-03T12:11:58.341Z,21.60
2022-09-03T12:15:01.410Z,21.70
2022-09-03T12:18:20.819Z,21.80
2022-09-03T12:21:00.881Z,21.90
2022-09-03T12:23:31.591Z,21.90
2022-09-03T12:26:08.397Z,21.90
2022-09-03T12:28:38.154Z,21.90
2022-09-03T12:31:28.049Z,21.90
2022-09-03T12:33:59.172Z,22.10
2022-09-03T12:36:35.821Z,22.10
2022-09-03T12:39:18.830Z,22.10
2022-09-03T12:42:01.465Z,22.10
2022-09-03T12:44:31.362Z,22.20
2022-09-03T12:47:35.559Z,22.10
2022-09-03T12:50:08.561Z,22.10
2022-09-03T12:52:56.260Z,22.20
2022-09-03T12:55:40.516Z,22.30
2022-09-03T12:58:56.079Z,22.30
2022-09-03T13:01:31.230Z,22.40
2022-09-03T13:04:12.012Z,22.30
2022-09-03T13:06:53.877Z,22.30
2022-09-03T13:09:26.845Z,22.20
2022-09-03T13:11:55.416Z,22.10
2022-09-03T13:14:22.694Z,22.10
2022-09-03T13:17:16.807Z,22.20
2022-09-03T13:20:07.966Z,22.30
2022-09-03T13:22:59.187Z,22.40
2022-09-03T13:25:52.936Z,22.50
2022-09-03T13:28:31.851Z,22.60
2022-09-03T13:31:32.815Z,22.70
2022-09-03T13:34:16.123Z,22.90
2022-09-03T13:36:54.575Z,22.80
2022-09-03T13:39:43.869Z,22.80
2022-09-03T13:42:31.213Z,22.80
2022-09-03T13:45:25.509Z,22.90
2022-09-03T13:48:34.900Z,22.70
2022-09-03T13:51:15.575Z,22.60
2022-09-03T13:54:00.079Z,22.30
2022-09-03T13:56:44.977Z,22.50
2022-09-03T13:59:36.017Z,22.50
2022-09-03T14:02:22.943Z,22.50
2022-09-03T14:04:58.410Z,22.50
2022-09-03T14:07:55.990Z,22.60
2022-09-03T14:10:31.617Z,22.70
2022-09-03T14:13:25.020Z,22.70
2022-09-03T14:16:21.181Z,22.70
2022-09-03T14:19:03.311Z,22.70
2022-09-03T14:21:36.544Z,22.60
2022-09-03T14:24:16.211Z,22.50
2022-09-03T14:27:02.284Z,22.50
2022-09-03T14:29:34.497Z,22.40
2022-09-03T14:32:23.270Z,22.30
2022-09-03T14:35:11.503Z,22.30
2022-09-03T14:37:54.303Z,22.40
2022-09-03T14:40:38.962Z,22.40
2022-09-03T14:43:37.417Z,22.40
2022-09-03T14:46:06.066Z,22.40
2022-09-03T14:48:56.449Z,22.40
2022-09-03T14:51:50.630Z,22.40
2022-09-03T14:54:49.944Z,22.40
2022-09-03T14:57:48.210Z,22.40
2022-09-03T15:00:20.011Z,22.40
2022-09-03T15:03:08.321Z,21.40
2022-09-03T15:06:04.944Z,22.30
2022-09-03T15:08:55.424Z,22.10
2022-09-03T15:11:26.403Z,22.00
2022-09-03T15:14:09.540Z,21.90
2022-09-03T15:16:48.103Z,21.80
2022-09-03T15:19:43.445Z,19.50
2022-09-03T15:22:28.119Z,21.60
2022-09-03T15:25:06.855Z,21.60
2022-09-03T15:28:12.104Z,21.60
2022-09-03T15:30:50.381Z,21.70
2022-09-03T15:33:46.784Z,21.80
2022-09-03T15:36:23.562Z,21.90
2022-09-03T15:38:57.149Z,22.00
2022-09-03T15:41:46.225Z,22.00
2022-09-03T15:44:19.151Z,21.90
2022-09-03T15:46:58.881Z,21.90
2022-09-03T15:49:36.589Z,21.90
2022-09-03T15:52:27.570Z,21.90
2022-09-03T15:55:26.111Z,21.80
2022-09-03T15:58:10.349Z,21.90
2022-09-03T16:01:03.031Z,21.90
2022-09-03T16:03:57.886Z,21.90
2022-09-03T16:07:08.054Z,21.80
2022-09-03T16:10:22.547Z,21.80
2022-09-03T16:13:01.638Z,21.80
2022-09-03T16:15:35.991Z,21.80
2022-09-03T16:18:25.102Z,21.70
2022-09-03T16:20:59.960Z,21.70
2022-09-03T16:23:41.319Z,21.60
2022-09-03T16:26:14.795Z,21.50
2022-09-03T16:28:53.641Z,21.50
2022-09-03T16:32:05.044Z,21.40
2022-09-03T16:35:14.797Z,21.40
2022-09-03T16:38:01.049Z,21.40
2022-09-03T16:40:37.935Z,21.30
2022-09-03T16:43:41.946Z,21.30
2022-09-03T16:46:24.239Z,21.20
2022-09-03T16:49:13.173Z,21.20
2022-09-03T16:52:06.946Z,21.10
2022-09-03T16:55:04.391Z,21.10
2022-09-03T16:58:00.932Z,21.00
2022-09-03T17:00:56.363Z,20.90
2022-09-03T17:03:57.213Z,20.80
2022-09-03T17:06:46.526Z,20.80
2022-09-03T17:09:34.873Z,20.70
2022-09-03T17:12:10.776Z,20.70
2022-09-03T17:15:07.063Z,20.60
2022-09-03T17:17:56.049Z,20.60
2022-09-03T17:20:38.364Z,20.60
2022-09-03T17:23:10.737Z,20.50
2022-09-03T17:25:39.993Z,20.40
2022-09-03T17:28:35.342Z,20.40
2022-09-03T17:31:26.729Z,20.40
2022-09-03T17:34:09.825Z,20.40
2022-09-03T17:36:53.510Z,20.40
2022-09-03T17:39:48.584Z,20.30
2022-09-03T17:42:49.215Z,18.50
2022-09-03T17:45:56.516Z,20.30
2022-09-03T17:48:44.309Z,20.20
2022-09-03T17:51:42.800Z,20.10
2022-09-03T17:54:21.116Z,20.10
2022-09-03T17:57:26.765Z,20.00
2022-09-03T18:00:10.768Z,20.00
2022-09-03T18:02:45.354Z,19.90
2022-09-03T18:05:50.537Z,19.80
2022-09-03T18:08:33.554Z,19.80
2022-09-03T18:11:14.392Z,19.60
2022-09-03T18:14:09.296Z,19.60
2022-09-03T18:16:48.681Z,19.60
2022-09-03T18:19:30.667Z,19.60
2022-09-03T18:22:20.764Z,20.80
2022-09-03T18:25:13.257Z,19.50
2022-09-03T18:28:02.743Z,19.50
2022-09-03T18:30:47.967Z,19.40
2022-09-03T18:33:47.590Z,19.40
2022-09-03T18:36:33.221Z,19.40
2022-09-03T18:39:43.000Z,19.40
2022-09-03T18:43:02.745Z,19.40
2022-09-03T18:49:33.570Z,19.40
2022-09-03T18:52:44.659Z,19.40
2022-09-03T18:55:43.379Z,19.40
2022-09-03T18:59:08.944Z,19.30
2022-09-03T19:01:57.162Z,19.30
2022-09-03T19:05:35.749Z,19.30
2022-09-03T19:08:38.733Z,19.30
2022-09-03T19:11:46.544Z,19.20
2022-09-03T19:15:18.176Z,19.30
2022-09-03T19:18:38.371Z,19.20
2022-09-03T19:21:41.297Z,19.10
2022-09-03T19:24:26.732Z,19.10
2022-09-03T19:27:55.303Z,19.00
2022-09-03T19:31:03.640Z,19.00
2022-09-03T19:34:01.187Z,18.90
2022-09-03T19:36:56.359Z,18.90
2022-09-03T19:40:19.769Z,18.90
2022-09-03T19:43:31.632Z,18.90
2022-09-03T19:46:37.599Z,18.90
2022-09-03T19:49:50.611Z,18.90
2022-09-03T19:52:50.662Z,18.80
2022-09-03T19:55:43.125Z,18.80
2022-09-03T19:58:42.533Z,18.80
2022-09-03T20:01:28.763Z,18.80
2022-09-03T20:04:17.506Z,18.70
2022-09-03T20:07:03.895Z,18.70
2022-09-03T20:09:56.471Z,18.60
2022-09-03T20:12:25.134Z,18.60
2022-09-03T20:14:51.794Z,18.70
2022-09-03T20:17:52.273Z,18.40
2022-09-03T20:20:43.736Z,18.60
2022-09-03T20:23:23.028Z,18.60
2022-09-03T20:26:08.451Z,18.60
2022-09-03T20:29:18.527Z,18.50
2022-09-03T20:32:02.334Z,18.50
2022-09-03T20:34:44.063Z,18.50
2022-09-03T20:37:15.083Z,18.50
2022-09-03T20:40:14.625Z,18.50
2022-09-03T20:43:00.938Z,18.50
2022-09-03T20:45:46.290Z,18.30
2022-09-03T20:48:23.775Z,18.40
2022-09-03T20:51:12.112Z,18.40
2022-09-03T20:54:08.586Z,18.30
2022-09-03T20:56:56.320Z,18.40
2022-09-03T21:00:02.340Z,18.40
2022-09-03T21:02:48.504Z,18.40
2022-09-03T21:05:26.964Z,18.30
2022-09-03T21:08:35.777Z,18.30
2022-09-03T21:11:11.039Z,18.30
2022-09-03T21:13:48.499Z,18.30
2022-09-03T21:16:56.657Z,18.20
2022-09-03T21:19:53.933Z,18.20
2022-09-03T21:22:32.657Z,18.20
2022-09-03T21:25:04.353Z,18.20
2022-09-03T21:27:41.452Z,18.20
2022-09-03T21:30:19.772Z,18.20
2022-09-03T21:33:02.981Z,18.20
2022-09-03T21:35:35.826Z,18.20
2022-09-03T21:38:14.606Z,18.10
2022-09-03T21:40:59.221Z,18.10
2022-09-03T21:43:35.039Z,18.20
2022-09-03T21:46:09.327Z,20.40
2022-09-03T21:48:43.098Z,18.10
2022-09-03T21:51:17.047Z,18.10
2022-09-03T21:53:49.199Z,18.10
2022-09-03T21:56:21.908Z,18.10
2022-09-03T21:59:08.908Z,18.00
2022-09-03T22:01:56.671Z,18.00
2022-09-03T22:04:29.008Z,18.00
2022-09-03T22:07:21.182Z,18.00
2022-09-03T22:10:12.685Z,18.00
2022-09-03T22:13:09.332Z,18.00
2022-09-03T22:15:39.340Z,17.90
2022-09-03T22:18:17.464Z,17.90
2022-09-03T22:20:57.838Z,17.80
2022-09-03T22:23:30.546Z,17.70
2022-09-03T22:26:04.999Z,17.70
2022-09-03T22:28:45.349Z,17.70
2022-09-03T22:31:36.022Z,17.60
2022-09-03T22:34:27.815Z,17.60
2022-09-03T22:37:03.554Z,17.50
2022-09-03T22:39:41.270Z,17.50
2022-09-03T22:42:26.908Z,17.40
2022-09-03T22:45:03.501Z,17.40
2022-09-03T22:47:49.608Z,17.30
2022-09-03T22:50:35.183Z,17.30
2022-09-03T22:53:27.512Z,17.30
2022-09-03T22:56:15.719Z,17.30
2022-09-03T22:59:03.465Z,17.30
2022-09-03T23:01:56.659Z,17.30
2022-09-03T23:05:06.470Z,17.30
2022-09-03T23:07:52.627Z,17.30
2022-09-03T23:10:30.873Z,17.30
2022-09-03T23:13:14.706Z,17.30
2022-09-03T23:15:42.291Z,17.30
2022-09-03T23:18:17.682Z,17.30
2022-09-03T23:21:01.179Z,17.30
2022-09-03T23:23:57.319Z,17.30
2022-09-03T23:26:34.439Z,17.30
2022-09-03T23:29:13.425Z,17.20
2022-09-03T23:31:40.141Z,17.20
2022-09-03T23:34:10.037Z,17.20
2022-09-03T23:39:59.468Z,17.10
2022-09-03T23:42:44.855Z,17.10
2022-09-03T23:45:35.850Z,17.00
2022-09-03T23:48:24.622Z,17.00
2022-09-03T23:51:32.975Z,16.90
2022-09-03T23:54:19.750Z,16.90
2022-09-03T23:57:03.638Z,16.80
